createdAt,value
2018-12-30T00:02:18.339Z,23.07
2018-12-30T00:04:43.656Z,23.04
2018-12-30T00:07:10.309Z,23.06
2018-12-30T00:09:36.963Z,23.06
2018-12-30T00:12:03.675Z,23.05
2018-12-30T00:14:30.378Z,23.05
2018-12-30T00:16:57.074Z,23.04
2018-12-30T00:19:23.729Z,23.00
2018-12-30T00:21:50.395Z,23.00
2018-12-30T00:24:17.066Z,23.01
2018-12-30T00:26:43.786Z,23.01
2018-12-30T00:29:10.440Z,22.98
2018-12-30T00:31:37.105Z,23.03
2018-12-30T00:34:03.825Z,22.99
2018-12-30T00:36:30.486Z,22.99
2018-12-30T00:38:57.144Z,22.98
2018-12-30T00:41:23.804Z,23.00
2018-12-30T00:43:50.475Z,22.98
2018-12-30T00:46:17.170Z,22.99
2018-12-30T00:48:43.827Z,22.98
2018-12-30T00:51:17.010Z,22.98
2018-12-30T00:53:37.195Z,22.96
2018-12-30T00:56:03.865Z,22.95
2018-12-30T00:58:31.107Z,22.96
2018-12-30T01:00:57.241Z,22.94
2018-12-30T01:03:23.908Z,22.95
2018-12-30T01:05:50.570Z,22.98
2018-12-30T01:08:17.228Z,22.96
2018-12-30T01:10:43.891Z,22.94
2018-12-30T01:13:10.552Z,22.95
2018-12-30T01:15:37.202Z,22.95
2018-12-30T01:18:03.867Z,22.94
2018-12-30T01:20:30.523Z,22.96
2018-12-30T01:22:57.183Z,22.91
2018-12-30T01:25:23.846Z,22.93
2018-12-30T01:27:50.561Z,22.93
2018-12-30T01:30:17.224Z,22.95
2018-12-30T01:32:43.889Z,22.93
2018-12-30T01:35:10.543Z,22.93
2018-12-30T01:37:38.410Z,22.91
2018-12-30T01:40:05.077Z,22.92
2018-12-30T01:42:31.728Z,22.93
2018-12-30T01:44:58.415Z,22.92
2018-12-30T01:47:25.089Z,22.92
2018-12-30T01:49:51.759Z,22.92
2018-12-30T01:52:18.410Z,22.90
2018-12-30T01:54:45.120Z,22.89
2018-12-30T01:57:11.838Z,22.92
2018-12-30T01:59:38.498Z,22.88
2018-12-30T02:02:05.156Z,22.89
2018-12-30T02:04:31.870Z,22.87
2018-12-30T02:06:58.526Z,22.89
2018-12-30T02:09:25.198Z,22.87
2018-12-30T02:11:51.848Z,22.90
2018-12-30T02:14:18.573Z,22.86
2018-12-30T02:16:45.239Z,22.89
2018-12-30T02:19:11.900Z,22.87
2018-12-30T02:21:41.172Z,22.88
2018-12-30T02:24:05.229Z,22.87
2018-12-30T02:26:31.890Z,22.87
2018-12-30T02:28:58.612Z,22.87
2018-12-30T02:31:25.276Z,22.87
2018-12-30T02:33:51.929Z,22.85
2018-12-30T02:36:18.596Z,22.88
2018-12-30T02:38:45.256Z,22.89
2018-12-30T02:41:11.943Z,22.88
2018-12-30T02:43:38.593Z,22.87
2018-12-30T02:46:05.321Z,22.90
2018-12-30T02:48:31.969Z,22.87
2018-12-30T02:50:58.707Z,22.86
2018-12-30T02:53:25.357Z,22.85
2018-12-30T02:55:52.023Z,22.89
2018-12-30T02:58:18.675Z,22.86
2018-12-30T03:00:45.355Z,22.85
2018-12-30T03:03:12.016Z,22.85
2018-12-30T03:05:38.680Z,22.86
2018-12-30T03:08:05.342Z,22.85
2018-12-30T03:10:32.005Z,22.87
2018-12-30T03:12:58.719Z,22.83
2018-12-30T03:15:25.380Z,22.85
2018-12-30T03:17:52.063Z,22.85
2018-12-30T03:20:18.708Z,22.85
2018-12-30T03:22:45.426Z,22.84
2018-12-30T03:25:12.112Z,22.84
2018-12-30T03:27:38.829Z,22.82
2018-12-30T03:30:05.483Z,22.86
2018-12-30T03:32:32.158Z,22.85
2018-12-30T03:34:58.819Z,22.86
2018-12-30T03:37:26.657Z,22.84
2018-12-30T03:39:52.168Z,22.84
2018-12-30T03:42:20.320Z,22.87
2018-12-30T03:44:45.553Z,22.86
2018-12-30T03:47:12.211Z,22.85
2018-12-30T03:49:38.880Z,22.82
2018-12-30T03:52:08.471Z,22.80
2018-12-30T03:54:32.297Z,22.83
2018-12-30T03:56:58.962Z,22.84
2018-12-30T03:59:25.630Z,22.83
2018-12-30T04:01:52.303Z,22.83
2018-12-30T04:04:19.029Z,22.81
2018-12-30T04:06:45.685Z,22.81
2018-12-30T04:09:12.338Z,22.82
2018-12-30T04:11:39.007Z,22.85
2018-12-30T04:14:05.659Z,22.81
2018-12-30T04:16:32.372Z,22.84
2018-12-30T04:18:59.042Z,22.84
2018-12-30T04:21:25.692Z,22.81
2018-12-30T04:23:52.362Z,22.84
2018-12-30T04:26:19.015Z,22.83
2018-12-30T04:28:45.742Z,22.82
2018-12-30T04:31:12.404Z,22.86
2018-12-30T04:33:39.071Z,22.81
2018-12-30T04:36:05.718Z,22.84
2018-12-30T04:38:32.424Z,22.82
2018-12-30T04:40:59.166Z,22.82
2018-12-30T04:43:25.873Z,22.84
2018-12-30T04:45:52.523Z,22.83
2018-12-30T04:48:19.219Z,22.82
2018-12-30T04:50:45.926Z,22.84
2018-12-30T04:53:12.598Z,22.83
2018-12-30T04:55:39.402Z,22.84
2018-12-30T04:58:06.059Z,22.80
2018-12-30T05:00:32.749Z,22.81
2018-12-30T05:02:59.410Z,22.81
2018-12-30T05:05:26.060Z,22.83
2018-12-30T05:07:52.774Z,22.80
2018-12-30T05:10:21.461Z,22.83
2018-12-30T05:12:48.157Z,22.81
2018-12-30T05:15:14.830Z,22.82
2018-12-30T05:17:41.507Z,22.81
2018-12-30T05:20:08.151Z,22.76
2018-12-30T05:22:34.817Z,22.51
2018-12-30T05:25:01.485Z,22.33
2018-12-30T05:27:28.157Z,22.29
2018-12-30T05:29:54.818Z,22.49
2018-12-30T05:32:21.475Z,22.55
2018-12-30T05:34:48.229Z,22.65
2018-12-30T05:37:17.591Z,22.69
2018-12-30T05:39:44.251Z,22.77
2018-12-30T05:42:11.074Z,22.81
2018-12-30T05:44:37.785Z,22.83
2018-12-30T05:47:04.391Z,22.88
2018-12-30T05:49:31.063Z,22.91
2018-12-30T05:51:57.730Z,22.95
2018-12-30T05:54:24.460Z,22.98
2018-12-30T05:56:51.195Z,22.99
2018-12-30T05:59:17.867Z,22.99
2018-12-30T06:01:44.521Z,22.99
2018-12-30T06:04:11.293Z,22.99
2018-12-30T06:06:37.950Z,22.97
2018-12-30T06:09:04.667Z,22.98
2018-12-30T06:11:31.315Z,22.98
2018-12-30T06:13:58.022Z,22.99
2018-12-30T06:16:24.757Z,22.99
2018-12-30T06:18:51.475Z,23.00
2018-12-30T06:21:18.201Z,22.96
2018-12-30T06:23:44.904Z,23.00
2018-12-30T06:26:11.608Z,23.01
2018-12-30T06:28:38.318Z,23.00
2018-12-30T06:31:04.969Z,23.00
2018-12-30T06:33:31.663Z,23.02
2018-12-30T06:35:58.431Z,23.03
2018-12-30T06:38:25.144Z,23.04
2018-12-30T06:40:51.843Z,23.03
2018-12-30T06:43:18.484Z,23.06
2018-12-30T06:45:45.136Z,23.06
2018-12-30T06:48:11.869Z,23.03
2018-12-30T06:50:38.512Z,23.07
2018-12-30T06:53:05.213Z,23.09
2018-12-30T06:55:31.916Z,23.08
2018-12-30T06:57:58.634Z,23.08
2018-12-30T07:00:25.286Z,23.09
2018-12-30T07:02:51.947Z,23.12
2018-12-30T07:05:18.666Z,23.10
2018-12-30T07:07:45.334Z,23.13
2018-12-30T07:10:11.998Z,23.13
2018-12-30T07:12:38.654Z,23.15
2018-12-30T07:15:05.356Z,23.13
2018-12-30T07:17:32.004Z,23.15
2018-12-30T07:19:58.672Z,23.15
2018-12-30T07:22:25.411Z,23.16
2018-12-30T07:24:52.073Z,23.15
2018-12-30T07:27:18.721Z,23.16
2018-12-30T07:29:45.406Z,23.16
2018-12-30T07:32:12.273Z,23.17
2018-12-30T07:34:38.900Z,23.18
2018-12-30T07:37:05.566Z,23.21
2018-12-30T07:39:32.306Z,23.19
2018-12-30T07:41:59.050Z,23.23
2018-12-30T07:44:25.699Z,23.22
2018-12-30T07:46:52.434Z,23.26
2018-12-30T07:49:19.151Z,23.23
2018-12-30T07:51:45.828Z,23.22
2018-12-30T07:54:12.546Z,23.26
2018-12-30T07:56:39.192Z,23.26
2018-12-30T07:59:05.845Z,23.25
2018-12-30T08:01:32.503Z,23.29
2018-12-30T08:03:59.230Z,23.27
2018-12-30T08:06:25.919Z,23.29
2018-12-30T08:08:52.580Z,23.27
2018-12-30T08:11:19.292Z,23.28
2018-12-30T08:13:45.960Z,23.31
2018-12-30T08:16:12.670Z,23.31
2018-12-30T08:18:39.333Z,23.29
2018-12-30T08:21:06.008Z,23.33
2018-12-30T08:23:32.710Z,23.30
2018-12-30T08:25:59.371Z,23.34
2018-12-30T08:28:26.089Z,23.33
2018-12-30T08:30:52.737Z,23.35
2018-12-30T08:33:19.397Z,23.30
2018-12-30T08:35:46.055Z,23.30
2018-12-30T08:38:12.711Z,23.29
2018-12-30T08:40:39.423Z,23.31
2018-12-30T08:43:06.087Z,23.30
2018-12-30T08:45:32.780Z,23.28
2018-12-30T08:47:59.425Z,23.29
2018-12-30T08:50:26.133Z,23.27
2018-12-30T08:52:52.786Z,23.33
2018-12-30T08:55:19.445Z,23.28
2018-12-30T08:57:46.120Z,23.28
2018-12-30T09:00:12.903Z,23.29
2018-12-30T09:02:39.734Z,23.27
2018-12-30T09:05:06.437Z,23.28
2018-12-30T09:07:33.086Z,23.28
2018-12-30T09:09:59.756Z,23.29
2018-12-30T09:12:26.455Z,23.28
2018-12-30T09:14:53.120Z,23.29
2018-12-30T09:17:19.772Z,23.29
2018-12-30T09:19:46.436Z,23.31
2018-12-30T09:22:13.139Z,23.29
2018-12-30T09:24:39.783Z,23.29
2018-12-30T09:27:06.444Z,23.30
2018-12-30T09:29:33.097Z,23.30
2018-12-30T09:31:59.791Z,23.30
2018-12-30T09:34:26.458Z,23.32
2018-12-30T09:36:53.385Z,23.29
2018-12-30T09:39:19.834Z,23.32
2018-12-30T09:41:46.486Z,23.34
2018-12-30T09:44:13.192Z,23.34
2018-12-30T09:46:39.847Z,23.31
2018-12-30T09:49:06.564Z,23.33
2018-12-30T09:51:33.210Z,23.33
2018-12-30T09:53:59.871Z,23.33
2018-12-30T09:56:26.543Z,23.33
2018-12-30T09:58:53.253Z,23.31
2018-12-30T10:01:19.905Z,23.33
2018-12-30T10:03:46.616Z,23.29
2018-12-30T10:06:13.331Z,23.32
2018-12-30T10:08:39.982Z,23.33
2018-12-30T10:11:06.689Z,23.31
2018-12-30T10:13:33.341Z,23.31
2018-12-30T10:16:00.027Z,23.31
2018-12-30T10:18:26.700Z,23.30
2018-12-30T10:20:53.363Z,23.31
2018-12-30T10:23:20.083Z,23.32
2018-12-30T10:25:46.844Z,23.35
2018-12-30T10:28:13.553Z,23.32
2018-12-30T10:30:40.204Z,23.34
2018-12-30T10:33:06.923Z,23.33
2018-12-30T10:35:33.641Z,23.33
2018-12-30T10:38:00.299Z,23.31
2018-12-30T10:40:26.959Z,23.34
2018-12-30T10:42:53.631Z,23.33
2018-12-30T10:45:20.335Z,23.34
2018-12-30T10:47:47.024Z,23.31
2018-12-30T10:50:13.678Z,23.34
2018-12-30T10:52:40.466Z,23.34
2018-12-30T10:55:07.124Z,23.34
2018-12-30T10:57:33.853Z,23.33
2018-12-30T11:00:00.561Z,23.33
2018-12-30T11:02:27.223Z,23.31
2018-12-30T11:04:53.935Z,23.32
2018-12-30T11:07:20.653Z,23.31
2018-12-30T11:09:47.302Z,23.33
2018-12-30T11:12:13.958Z,23.29
2018-12-30T11:14:40.645Z,23.30
2018-12-30T11:17:07.321Z,23.31
2018-12-30T11:19:33.979Z,23.29
2018-12-30T11:22:00.686Z,23.30
2018-12-30T11:24:27.344Z,23.28
2018-12-30T11:26:54.148Z,23.28
2018-12-30T11:29:20.821Z,23.29
2018-12-30T11:31:47.523Z,23.29
2018-12-30T11:34:14.231Z,23.29
2018-12-30T11:36:40.883Z,23.28
2018-12-30T11:39:07.599Z,23.28
2018-12-30T11:41:34.275Z,23.26
2018-12-30T11:44:00.985Z,23.27
2018-12-30T11:46:27.704Z,23.25
2018-12-30T11:48:54.352Z,23.28
2018-12-30T11:51:21.070Z,23.27
2018-12-30T11:53:47.728Z,23.27
2018-12-30T11:56:14.433Z,23.27
2018-12-30T11:58:41.155Z,23.26
2018-12-30T12:01:07.804Z,23.27
2018-12-30T12:03:34.518Z,23.25
2018-12-30T12:06:01.359Z,23.26
2018-12-30T12:08:28.082Z,23.26
2018-12-30T12:10:54.748Z,23.25
2018-12-30T12:13:21.561Z,23.26
2018-12-30T12:15:48.227Z,23.27
2018-12-30T12:18:14.924Z,23.25
2018-12-30T12:20:41.632Z,23.26
2018-12-30T12:23:08.347Z,23.22
2018-12-30T12:25:35.005Z,23.23
2018-12-30T12:28:01.723Z,23.22
2018-12-30T12:30:28.368Z,23.22
2018-12-30T12:32:55.041Z,23.25
2018-12-30T12:35:21.742Z,23.20
2018-12-30T12:37:48.391Z,23.23
2018-12-30T12:40:15.118Z,23.24
2018-12-30T12:42:41.802Z,23.22
2018-12-30T12:45:08.450Z,23.20
2018-12-30T12:47:35.134Z,23.20
2018-12-30T12:50:01.841Z,23.24
2018-12-30T12:52:28.554Z,23.19
2018-12-30T12:54:55.206Z,23.21
2018-12-30T12:57:21.906Z,23.20
2018-12-30T12:59:48.572Z,23.22
2018-12-30T13:02:15.311Z,23.19
2018-12-30T13:04:41.975Z,23.16
2018-12-30T13:07:08.636Z,23.20
2018-12-30T13:09:35.303Z,23.16
2018-12-30T13:12:01.976Z,23.19
2018-12-30T13:14:28.642Z,23.17
2018-12-30T13:16:55.372Z,23.16
2018-12-30T13:19:22.022Z,23.19
2018-12-30T13:21:48.687Z,23.17
2018-12-30T13:24:15.349Z,23.06
2018-12-30T13:26:42.058Z,22.80
2018-12-30T13:29:08.773Z,22.62
2018-12-30T13:31:35.429Z,22.67
2018-12-30T13:34:02.140Z,22.87
2018-12-30T13:36:28.846Z,22.90
2018-12-30T13:38:58.506Z,23.00
2018-12-30T13:41:25.197Z,23.03
2018-12-30T13:43:51.853Z,23.11
2018-12-30T13:46:18.567Z,23.14
2018-12-30T13:48:45.215Z,23.17
2018-12-30T13:51:11.911Z,23.24
2018-12-30T13:53:40.802Z,23.23
2018-12-30T13:56:07.454Z,23.25
2018-12-30T13:58:34.112Z,23.25
2018-12-30T14:01:00.779Z,23.26
2018-12-30T14:03:27.448Z,23.26
2018-12-30T14:05:54.106Z,23.28
2018-12-30T14:08:20.775Z,23.31
2018-12-30T14:10:47.434Z,23.30
2018-12-30T14:13:14.103Z,23.33
2018-12-30T14:15:40.748Z,23.33
2018-12-30T14:18:07.463Z,23.33
2018-12-30T14:20:34.068Z,23.35
2018-12-30T14:23:00.736Z,23.37
2018-12-30T14:25:27.415Z,23.37
2018-12-30T14:27:54.090Z,23.34
2018-12-30T14:30:20.723Z,23.35
2018-12-30T14:32:47.384Z,23.36
2018-12-30T14:35:14.031Z,23.36
2018-12-30T14:37:40.691Z,23.39
2018-12-30T14:40:07.364Z,23.38
2018-12-30T14:42:34.035Z,23.39
2018-12-30T14:45:00.691Z,23.42
2018-12-30T14:47:27.352Z,23.44
2018-12-30T14:49:54.011Z,23.42
2018-12-30T14:52:20.660Z,23.43
2018-12-30T14:54:50.109Z,23.43
2018-12-30T14:57:16.776Z,23.43
2018-12-30T14:59:43.444Z,23.43
2018-12-30T15:02:10.126Z,23.41
2018-12-30T15:04:36.776Z,23.43
2018-12-30T15:07:03.426Z,23.44
2018-12-30T15:09:35.658Z,23.40
2018-12-30T15:11:56.745Z,23.42
2018-12-30T15:14:23.420Z,23.43
2018-12-30T15:16:50.079Z,23.42
2018-12-30T15:19:16.744Z,23.40
2018-12-30T15:21:43.432Z,23.35
2018-12-30T15:24:10.106Z,23.36
2018-12-30T15:26:36.761Z,23.36
2018-12-30T15:29:03.430Z,23.34
2018-12-30T15:31:30.089Z,23.30
2018-12-30T15:33:56.763Z,23.31
2018-12-30T15:36:23.429Z,23.32
2018-12-30T15:38:50.092Z,23.31
2018-12-30T15:41:16.747Z,23.30
2018-12-30T15:43:43.420Z,23.30
2018-12-30T15:46:10.092Z,23.30
2018-12-30T15:48:36.759Z,23.28
2018-12-30T15:51:03.502Z,23.27
2018-12-30T15:53:30.167Z,23.25
2018-12-30T15:55:56.882Z,23.27
2018-12-30T15:58:23.548Z,23.25
2018-12-30T16:00:50.218Z,23.26
2018-12-30T16:03:16.866Z,23.22
2018-12-30T16:05:43.529Z,23.27
2018-12-30T16:08:10.235Z,23.25
2018-12-30T16:10:36.896Z,23.21
2018-12-30T16:13:03.551Z,23.20
2018-12-30T16:15:30.221Z,23.20
2018-12-30T16:17:56.876Z,23.19
2018-12-30T16:20:23.536Z,23.20
2018-12-30T16:22:50.202Z,23.21
2018-12-30T16:25:16.868Z,23.17
2018-12-30T16:27:43.553Z,23.18
2018-12-30T16:30:10.213Z,23.16
2018-12-30T16:32:36.869Z,23.18
2018-12-30T16:35:03.533Z,23.15
2018-12-30T16:37:30.205Z,23.19
2018-12-30T16:39:56.898Z,23.16
2018-12-30T16:42:23.555Z,23.19
2018-12-30T16:44:50.241Z,23.16
2018-12-30T16:47:16.884Z,23.16
2018-12-30T16:49:43.612Z,23.16
2018-12-30T16:52:10.259Z,23.17
2018-12-30T16:54:38.401Z,23.15
2018-12-30T16:57:03.598Z,23.15
2018-12-30T16:59:30.267Z,23.15
2018-12-30T17:01:56.974Z,23.16
2018-12-30T17:04:23.641Z,23.12
2018-12-30T17:06:50.325Z,23.14
2018-12-30T17:09:17.056Z,23.13
2018-12-30T17:11:43.801Z,23.14
2018-12-30T17:14:10.465Z,23.11
2018-12-30T17:16:37.123Z,23.13
2018-12-30T17:19:03.780Z,23.12
2018-12-30T17:21:30.474Z,23.11
2018-12-30T17:23:57.134Z,23.13
2018-12-30T17:26:23.803Z,23.09
2018-12-30T17:28:50.455Z,23.10
2018-12-30T17:31:17.171Z,23.11
2018-12-30T17:33:43.826Z,23.10
2018-12-30T17:36:10.494Z,23.09
2018-12-30T17:38:37.191Z,23.11
2018-12-30T17:41:03.850Z,23.10
2018-12-30T17:43:30.510Z,23.10
2018-12-30T17:45:57.156Z,23.10
2018-12-30T17:48:23.872Z,23.10
2018-12-30T17:50:50.531Z,23.09
2018-12-30T17:53:17.203Z,23.08
2018-12-30T17:55:50.559Z,23.10
2018-12-30T17:58:10.527Z,23.08
2018-12-30T18:00:37.250Z,23.10
2018-12-30T18:03:03.901Z,23.09
2018-12-30T18:05:30.714Z,23.10
2018-12-30T18:07:57.380Z,23.07
2018-12-30T18:10:24.040Z,23.07
2018-12-30T18:12:50.814Z,23.08
2018-12-30T18:15:17.537Z,23.09
2018-12-30T18:17:44.192Z,23.07
2018-12-30T18:20:10.849Z,23.08
2018-12-30T18:22:37.509Z,23.05
2018-12-30T18:25:04.181Z,23.06
2018-12-30T18:27:30.902Z,23.04
2018-12-30T18:29:57.557Z,23.03
2018-12-30T18:32:24.224Z,23.07
2018-12-30T18:34:50.903Z,23.05
2018-12-30T18:37:17.557Z,23.06
2018-12-30T18:39:44.295Z,23.03
2018-12-30T18:42:10.960Z,23.06
2018-12-30T18:44:37.636Z,23.03
2018-12-30T18:47:04.326Z,23.05
2018-12-30T18:49:31.061Z,23.02
2018-12-30T18:51:57.723Z,23.04
2018-12-30T18:54:24.384Z,23.01
2018-12-30T18:56:51.121Z,23.00
2018-12-30T18:59:17.827Z,23.01
2018-12-30T19:01:47.414Z,23.02
2018-12-30T19:04:14.085Z,23.01
2018-12-30T19:06:40.755Z,23.00
2018-12-30T19:09:07.433Z,23.00
2018-12-30T19:11:34.176Z,23.00
2018-12-30T19:14:00.883Z,22.98
2018-12-30T19:16:27.492Z,22.97
2018-12-30T19:18:54.158Z,23.00
2018-12-30T19:21:20.824Z,22.99
2018-12-30T19:23:47.502Z,23.01
2018-12-30T19:26:14.602Z,22.99
2018-12-30T19:28:40.820Z,23.01
2018-12-30T19:31:07.483Z,23.01
2018-12-30T19:33:34.143Z,23.04
2018-12-30T19:36:00.873Z,23.10
2018-12-30T19:38:27.578Z,23.07
2018-12-30T19:40:54.240Z,23.09
2018-12-30T19:43:20.914Z,23.10
2018-12-30T19:45:47.573Z,23.13
2018-12-30T19:48:14.255Z,23.16
2018-12-30T19:50:40.919Z,23.18
2018-12-30T19:53:07.587Z,23.14
2018-12-30T19:55:34.234Z,23.16
2018-12-30T19:58:00.957Z,23.15
2018-12-30T20:00:27.618Z,23.13
2018-12-30T20:02:54.273Z,23.13
2018-12-30T20:05:20.978Z,23.17
2018-12-30T20:07:47.633Z,23.17
2018-12-30T20:10:14.365Z,23.17
2018-12-30T20:12:41.029Z,23.19
2018-12-30T20:15:07.803Z,23.21
2018-12-30T20:17:34.466Z,23.22
2018-12-30T20:20:02.291Z,23.25
2018-12-30T20:22:27.845Z,23.24
2018-12-30T20:24:54.553Z,23.26
2018-12-30T20:27:21.217Z,23.25
2018-12-30T20:29:47.890Z,23.23
2018-12-30T20:32:14.597Z,23.26
2018-12-30T20:34:41.250Z,23.27
2018-12-30T20:37:07.918Z,23.27
2018-12-30T20:39:34.593Z,23.25
2018-12-30T20:42:01.233Z,23.27
2018-12-30T20:44:27.896Z,23.27
2018-12-30T20:46:54.550Z,23.28
2018-12-30T20:49:21.246Z,23.28
2018-12-30T20:51:47.955Z,23.28
2018-12-30T20:54:14.609Z,23.30
2018-12-30T20:56:41.327Z,23.29
2018-12-30T20:59:07.974Z,23.27
2018-12-30T21:01:36.547Z,23.28
2018-12-30T21:04:01.406Z,23.28
2018-12-30T21:06:28.083Z,23.29
2018-12-30T21:08:54.732Z,23.27
2018-12-30T21:11:21.416Z,23.31
2018-12-30T21:13:48.101Z,23.30
2018-12-30T21:16:14.795Z,23.29
2018-12-30T21:18:41.471Z,23.30
2018-12-30T21:21:08.117Z,23.30
2018-12-30T21:23:34.851Z,23.30
2018-12-30T21:26:01.504Z,23.30
2018-12-30T21:28:28.183Z,23.09
2018-12-30T21:30:54.870Z,22.82
2018-12-30T21:33:21.598Z,22.70
2018-12-30T21:35:48.252Z,22.77
2018-12-30T21:38:14.992Z,22.91
2018-12-30T21:40:41.627Z,22.93
2018-12-30T21:43:08.290Z,22.98
2018-12-30T21:45:35.001Z,23.04
2018-12-30T21:48:01.659Z,23.07
2018-12-30T21:50:28.379Z,23.09
2018-12-30T21:52:55.024Z,23.13
2018-12-30T21:55:21.710Z,23.17
2018-12-30T21:57:48.394Z,23.22
2018-12-30T22:00:15.113Z,23.20
2018-12-30T22:02:41.767Z,23.25
2018-12-30T22:05:08.421Z,23.25
2018-12-30T22:07:35.117Z,23.25
2018-12-30T22:10:03.362Z,23.22
2018-12-30T22:12:28.428Z,23.16
2018-12-30T22:14:55.087Z,23.16
2018-12-30T22:17:21.796Z,23.15
2018-12-30T22:19:48.532Z,23.15
2018-12-30T22:22:15.202Z,23.12
2018-12-30T22:24:41.917Z,23.12
2018-12-30T22:27:08.579Z,23.09
2018-12-30T22:29:35.234Z,23.10
2018-12-30T22:32:01.925Z,23.11
2018-12-30T22:34:28.579Z,23.11
2018-12-30T22:36:55.236Z,23.11
2018-12-30T22:39:21.906Z,23.06
2018-12-30T22:41:48.574Z,23.09
2018-12-30T22:44:15.262Z,23.08
2018-12-30T22:46:41.916Z,23.09
2018-12-30T22:49:08.587Z,23.06
2018-12-30T22:51:35.248Z,23.08
2018-12-30T22:54:01.957Z,23.05
2018-12-30T22:56:28.603Z,23.08
2018-12-30T22:58:55.329Z,23.05
2018-12-30T23:01:21.998Z,23.07
2018-12-30T23:03:49.862Z,23.03
2018-12-30T23:06:15.368Z,23.06
2018-12-30T23:08:42.071Z,23.05
2018-12-30T23:11:08.771Z,23.07
2018-12-30T23:13:35.445Z,23.01
2018-12-30T23:16:02.151Z,23.02
2018-12-30T23:18:28.857Z,23.06
2018-12-30T23:20:55.513Z,23.02
2018-12-30T23:23:22.216Z,23.04
2018-12-30T23:25:48.873Z,23.05
2018-12-30T23:28:15.569Z,23.02
2018-12-30T23:30:42.231Z,23.01
2018-12-30T23:33:08.889Z,23.01
2018-12-30T23:35:35.531Z,23.04
2018-12-30T23:38:02.247Z,23.02
2018-12-30T23:40:28.908Z,23.01
2018-12-30T23:42:55.576Z,23.03
2018-12-30T23:45:22.286Z,23.00
2018-12-30T23:47:48.952Z,23.00
2018-12-30T23:50:15.624Z,23.01
2018-12-30T23:52:42.293Z,23.00
2018-12-30T23:55:08.944Z,23.00
2018-12-30T23:57:35.601Z,23.00
